This demonstration page uses our WeatherBlox Daily Observations layout. Learn more.

36.19886, -115.1175

Hourly Observations for May 8, 2018

Temp ( °F °C ) Dew Point ( °F °C ) Humidity (%) Winds ( mph kmh ) Pressure ( in mb ) Visibility ( mi km ) Precip ( " mm )
12:53 am 00:53 Clear 77 25 22 -5.6 13 13 WNW 7 11 29.88 1012 10 16.09344 0 0
1:53 am 01:53 Clear 73 22.8 25 -3.9 17 17 NW 3 6 29.88 1012 10 16.09344 0 0
2:53 am 02:53 Clear 74 23.3 24 -4.4 15 15 WNW 5 7 29.88 1012 10 16.09344 0 0
3:53 am 03:53 Clear 72 22.2 24 -4.4 17 17 WNW 9 15 29.88 1012 10 16.09344 0 0
4:53 am 04:53 Clear 73 22.8 18 -7.8 12 12 NW 8 13 29.88 1012 10 16.09344 0 0
5:53 am 05:53 Sunny 74 23.3 17 -8.3 11 11 WNW 9 15 29.91 1013 10 16.09344 0 0
6:53 am 06:53 Sunny 76 24.4 17 -8.3 11 11 N 9 15 29.94 1014 10 16.09344 0 0
7:53 am 07:53 Sunny 79 26.1 20 -6.7 11 11 N 5 7 29.97 1015 10 16.09344 0 0
8:53 am 08:53 Sunny 83 28.3 16 -8.9 8 8 Calm 29.97 1015 10 16.09344 0 0
9:53 am 09:53 Sunny 85 29.4 16 -8.9 7 7 SSE 5 7 29.97 1015 10 16.09344 0 0
10:53 am 10:53 Sunny 89 31.7 11 -11.7 5 5 Calm 29.94 1014 10 16.09344 0 0
11:53 am 11:53 Sunny 92 33.3 13 -10.6 5 5 N 3 6 29.94 1014 10 16.09344 0 0
12:53 pm 12:53 Sunny 94 34.4 12 -11.1 5 5 ESE 3 6 29.91 1013 10 16.09344 0 0
1:53 pm 13:53 Sunny 96 35.6 11 -11.7 4 4 N 7 11 29.88 1012 10 16.09344 0 0
2:53 pm 14:53 Sunny 98 36.7 8 -13.3 3 3 SSE 10 17 29.85 1011 10 16.09344 0 0
3:53 pm 15:53 Sunny 99 37.2 5 -15 3 3 SSE 6 9 29.83 1010 10 16.09344 0 0
4:53 pm 16:53 Sunny 99 37.2 7 -13.9 3 3 SW 8 13 29.8 1009 10 16.09344 0 0
5:53 pm 17:53 Sunny 98 36.7 9 -12.8 4 4 S 5 7 29.8 1009 10 16.09344 0 0
6:53 pm 18:53 Sunny 97 36.1 9 -12.8 4 4 S 9 15 29.8 1009 10 16.09344 0 0
7:53 pm 19:53 Clear 95 35 13 -10.6 5 5 W 10 17 29.8 1009 10 16.09344 0 0
8:53 pm 20:53 Clear 93 33.9 15 -9.4 6 6 WSW 8 13 29.8 1009 10 16.09344 0 0

Powered by AerisWeather